createdAt,value
2019-04-25T00:00:58.152Z,65.70
2019-04-25T00:02:32.487Z,66.20
2019-04-25T00:03:58.230Z,67.50
2019-04-25T00:05:24.040Z,67.30
2019-04-25T00:06:49.612Z,67.60
2019-04-25T00:08:15.296Z,68.20
2019-04-25T00:09:43.969Z,68.50
2019-04-25T00:11:11.596Z,68.50
2019-04-25T00:12:37.963Z,69.00
2019-04-25T00:14:03.524Z,69.20
2019-04-25T00:15:29.194Z,69.40
2019-04-25T00:16:54.923Z,69.70
2019-04-25T00:18:22.097Z,69.90
2019-04-25T00:19:48.350Z,70.00
2019-04-25T00:21:22.215Z,70.20
2019-04-25T00:23:02.037Z,70.40
2019-04-25T00:24:55.803Z,70.60
2019-04-25T00:26:35.207Z,70.70
2019-04-25T00:28:01.798Z,70.90
2019-04-25T00:29:27.607Z,70.70
2019-04-25T00:30:53.151Z,70.90
2019-04-25T00:32:18.747Z,70.70
2019-04-25T00:33:45.212Z,70.10
2019-04-25T00:35:11.874Z,69.90
2019-04-25T00:36:39.056Z,69.60
2019-04-25T00:38:04.712Z,69.30
2019-04-25T00:39:31.813Z,69.00
2019-04-25T00:40:57.275Z,68.70
2019-04-25T00:42:23.232Z,68.60
2019-04-25T00:43:49.526Z,67.90
2019-04-25T00:45:15.612Z,67.00
2019-04-25T00:46:44.833Z,66.50
2019-04-25T00:48:08.341Z,66.30
2019-04-25T00:49:33.771Z,64.60
2019-04-25T00:50:59.252Z,64.70
2019-04-25T00:52:24.847Z,64.40
2019-04-25T00:53:53.602Z,63.70
2019-04-25T00:55:26.947Z,64.00
2019-04-25T00:56:46.111Z,63.80
2019-04-25T00:58:18.651Z,64.00
2019-04-25T00:59:53.876Z,64.30
2019-04-25T01:01:36.527Z,64.40
2019-04-25T01:03:03.380Z,64.30
2019-04-25T01:04:31.556Z,64.50
2019-04-25T01:05:57.116Z,64.60
2019-04-25T01:07:22.691Z,64.80
2019-04-25T01:08:48.309Z,65.40
2019-04-25T01:10:14.571Z,66.10
2019-04-25T01:11:40.161Z,66.00
2019-04-25T01:13:06.559Z,66.30
2019-04-25T01:14:33.764Z,66.30
2019-04-25T01:15:59.731Z,66.30
2019-04-25T01:17:25.382Z,66.50
2019-04-25T01:18:50.984Z,66.70
2019-04-25T01:20:16.653Z,66.90
2019-04-25T01:21:42.103Z,67.00
2019-04-25T01:23:07.722Z,67.30
2019-04-25T01:24:33.987Z,67.80
2019-04-25T01:26:00.477Z,68.10
2019-04-25T01:27:25.999Z,68.50
2019-04-25T01:28:51.916Z,69.00
2019-04-25T01:30:20.716Z,69.20
2019-04-25T01:31:46.622Z,69.50
2019-04-25T01:33:13.560Z,69.90
2019-04-25T01:34:48.531Z,70.20
2019-04-25T01:36:28.175Z,71.10
2019-04-25T01:38:13.898Z,71.50
2019-04-25T01:39:49.660Z,72.30
2019-04-25T01:41:34.272Z,72.60
2019-04-25T01:43:17.342Z,73.10
2019-04-25T01:44:44.983Z,73.50
2019-04-25T01:46:14.593Z,73.90
2019-04-25T01:47:39.374Z,74.20
2019-04-25T01:49:04.991Z,74.40
2019-04-25T01:50:30.505Z,74.50
2019-04-25T01:51:57.444Z,74.80
2019-04-25T01:53:24.131Z,75.00
2019-04-25T01:54:50.529Z,75.20
2019-04-25T01:56:16.327Z,75.40
2019-04-25T01:57:45.060Z,75.50
2019-04-25T01:59:09.091Z,75.70
2019-04-25T02:00:43.126Z,75.90
2019-04-25T02:02:11.481Z,75.90
2019-04-25T02:03:37.025Z,76.10
2019-04-25T02:05:04.976Z,76.10
2019-04-25T02:06:30.162Z,76.20
2019-04-25T02:07:55.849Z,76.30
2019-04-25T02:09:23.330Z,76.30
2019-04-25T02:10:54.173Z,76.50
2019-04-25T02:12:38.017Z,76.60
2019-04-25T02:14:05.100Z,76.60
2019-04-25T02:15:33.447Z,76.90
2019-04-25T02:17:00.283Z,77.00
2019-04-25T02:18:26.048Z,77.20
2019-04-25T02:19:52.180Z,77.50
2019-04-25T02:21:18.213Z,77.60
2019-04-25T02:22:44.219Z,77.90
2019-04-25T02:24:09.855Z,77.90
2019-04-25T02:25:35.473Z,78.10
2019-04-25T02:27:04.641Z,78.10
2019-04-25T02:28:30.503Z,78.50
2019-04-25T02:29:56.366Z,79.30
2019-04-25T02:31:24.684Z,79.00
2019-04-25T02:32:49.827Z,79.20
2019-04-25T02:34:18.217Z,79.30
2019-04-25T02:35:45.730Z,79.60
2019-04-25T02:37:11.219Z,79.80
2019-04-25T02:38:36.843Z,79.90
2019-04-25T02:40:07.891Z,80.00
2019-04-25T02:41:34.277Z,80.00
2019-04-25T02:43:00.815Z,80.30
2019-04-25T02:44:26.814Z,80.30
2019-04-25T02:46:09.850Z,80.80
2019-04-25T02:47:46.905Z,80.30
2019-04-25T02:49:34.914Z,80.40
2019-04-25T02:51:07.588Z,80.70
2019-04-25T02:52:38.886Z,80.70
2019-04-25T02:54:07.635Z,80.80
2019-04-25T02:55:35.044Z,80.90
2019-04-25T02:56:59.839Z,81.20
2019-04-25T02:58:25.551Z,81.20
2019-04-25T02:59:51.121Z,81.70
2019-04-25T03:01:22.663Z,81.90
2019-04-25T03:02:45.730Z,82.30
2019-04-25T03:04:11.622Z,82.40
2019-04-25T03:05:37.245Z,82.60
2019-04-25T03:07:07.431Z,82.90
2019-04-25T03:08:30.000Z,83.20
2019-04-25T03:09:55.598Z,83.40
2019-04-25T03:11:21.145Z,83.80
2019-04-25T03:12:46.812Z,84.30
2019-04-25T03:14:14.576Z,84.70
2019-04-25T03:15:39.683Z,84.70
2019-04-25T03:17:08.256Z,85.00
2019-04-25T03:18:34.852Z,85.10
2019-04-25T03:20:26.599Z,85.40
2019-04-25T03:21:54.996Z,85.80
2019-04-25T03:23:42.381Z,85.90
2019-04-25T03:25:11.571Z,85.90
2019-04-25T03:26:40.317Z,85.90
2019-04-25T03:28:04.965Z,86.20
2019-04-25T03:29:30.149Z,86.50
2019-04-25T03:30:57.312Z,86.60
2019-04-25T03:32:27.987Z,86.60
2019-04-25T03:33:50.146Z,86.80
2019-04-25T03:35:15.840Z,87.00
2019-04-25T03:36:41.422Z,87.30
2019-04-25T03:38:07.100Z,88.30
2019-04-25T03:39:33.565Z,87.90
2019-04-25T03:40:59.301Z,88.10
2019-04-25T03:42:25.809Z,88.20
2019-04-25T03:43:51.312Z,88.40
2019-04-25T03:45:16.941Z,88.90
2019-04-25T03:46:43.760Z,89.50
2019-04-25T03:48:09.568Z,89.40
2019-04-25T03:49:35.175Z,89.90
2019-04-25T03:51:02.222Z,90.00
2019-04-25T03:52:27.876Z,90.30
2019-04-25T03:53:53.640Z,90.50
2019-04-25T03:55:19.293Z,90.80
2019-04-25T03:56:51.932Z,91.40
2019-04-25T03:58:12.768Z,92.20
2019-04-25T03:59:39.147Z,92.60
2019-04-25T04:01:06.918Z,93.10
2019-04-25T04:02:34.286Z,93.30
2019-04-25T04:03:59.924Z,94.30
2019-04-25T04:05:25.422Z,94.80
2019-04-25T04:06:50.956Z,95.30
2019-04-25T04:08:16.478Z,95.60
2019-04-25T04:09:43.489Z,96.40
2019-04-25T04:11:10.042Z,97.20
2019-04-25T04:12:35.751Z,97.70
2019-04-25T04:14:01.360Z,98.30
2019-04-25T04:15:27.075Z,98.70
2019-04-25T04:17:10.722Z,99.10
2019-04-25T04:18:42.172Z,99.30
2019-04-25T04:20:33.505Z,99.80
2019-04-25T04:22:07.918Z,99.90
2019-04-25T04:23:59.087Z,99.90
2019-04-25T04:25:24.768Z,99.90
2019-04-25T04:27:08.991Z,99.90
2019-04-25T04:28:34.848Z,99.90
2019-04-25T04:30:00.342Z,99.90
2019-04-25T04:31:25.798Z,99.90
2019-04-25T04:32:51.359Z,99.90
2019-04-25T04:34:17.055Z,99.90
2019-04-25T04:35:43.890Z,99.90
2019-04-25T04:37:09.621Z,99.90
2019-04-25T04:38:35.248Z,99.90
2019-04-25T04:40:00.921Z,99.90
2019-04-25T04:41:26.375Z,99.90
2019-04-25T04:42:53.307Z,99.90
2019-04-25T04:44:19.179Z,99.90
2019-04-25T04:45:45.542Z,99.90
2019-04-25T04:47:12.011Z,99.90
2019-04-25T04:48:38.146Z,99.90
2019-04-25T04:50:03.933Z,99.90
2019-04-25T04:51:33.684Z,99.90
2019-04-25T04:52:59.232Z,99.90
2019-04-25T04:54:24.692Z,99.90
2019-04-25T04:55:50.479Z,99.90
2019-04-25T04:57:26.511Z,99.90
2019-04-25T04:58:43.278Z,99.90
2019-04-25T05:00:10.940Z,99.90
2019-04-25T05:01:38.887Z,99.90
2019-04-25T05:03:19.391Z,99.90
2019-04-25T05:05:03.805Z,99.90
2019-04-25T05:06:38.730Z,99.90
2019-04-25T05:08:14.676Z,99.90
2019-04-25T05:09:40.225Z,99.90
2019-04-25T05:11:05.812Z,99.90
2019-04-25T05:12:31.288Z,99.90
2019-04-25T05:13:56.737Z,99.90
2019-04-25T05:15:24.568Z,99.90
2019-04-25T05:16:49.684Z,99.90
2019-04-25T05:18:17.454Z,99.90
2019-04-25T05:19:43.412Z,99.90
2019-04-25T05:21:08.986Z,99.90
2019-04-25T05:22:34.436Z,99.90
2019-04-25T05:24:00.102Z,99.90
2019-04-25T05:25:25.864Z,99.90
2019-04-25T05:26:51.400Z,99.90
2019-04-25T05:28:18.225Z,99.90
2019-04-25T05:29:44.151Z,99.90
2019-04-25T05:31:37.309Z,99.90
2019-04-25T05:33:03.956Z,99.90
2019-04-25T05:34:29.615Z,99.90
2019-04-25T05:35:55.210Z,99.90
2019-04-25T05:37:20.704Z,99.90
2019-04-25T05:38:46.662Z,99.90
2019-04-25T05:40:14.652Z,99.90
2019-04-25T05:42:16.310Z,99.90
2019-04-25T05:43:41.679Z,99.90
2019-04-25T05:45:07.527Z,99.90
2019-04-25T05:46:34.128Z,99.90
2019-04-25T05:47:59.847Z,99.90
2019-04-25T05:49:26.353Z,99.90
2019-04-25T05:50:53.676Z,99.90
2019-04-25T05:52:19.833Z,99.90
2019-04-25T05:53:47.137Z,99.90
2019-04-25T05:55:14.259Z,99.90
2019-04-25T05:56:40.009Z,99.90
2019-04-25T05:58:05.767Z,99.90
2019-04-25T05:59:31.350Z,99.90
2019-04-25T06:00:57.075Z,99.90
2019-04-25T06:02:24.479Z,99.90
2019-04-25T06:03:49.707Z,99.90
2019-04-25T06:05:16.691Z,99.90
2019-04-25T06:06:44.521Z,99.90
2019-04-25T06:08:10.247Z,99.90
2019-04-25T06:09:54.732Z,99.90
2019-04-25T06:11:43.710Z,99.90
2019-04-25T06:13:40.161Z,99.90
2019-04-25T06:15:06.368Z,99.90
2019-04-25T06:16:33.979Z,99.90
2019-04-25T06:18:21.314Z,99.90
2019-04-25T06:19:50.207Z,99.90
2019-04-25T06:21:15.707Z,99.90
2019-04-25T06:23:08.413Z,99.90
2019-04-25T06:24:55.582Z,99.90
2019-04-25T06:26:29.985Z,99.90
2019-04-25T06:27:56.394Z,99.90
2019-04-25T06:29:16.828Z,99.90
2019-04-25T06:30:44.207Z,99.90
2019-04-25T06:32:09.913Z,99.90
2019-04-25T06:33:35.412Z,99.90
2019-04-25T06:35:00.976Z,99.90
2019-04-25T06:36:27.130Z,99.90
2019-04-25T06:37:53.687Z,99.90
2019-04-25T06:39:20.325Z,99.90
2019-04-25T06:40:46.739Z,99.90
2019-04-25T06:42:13.725Z,99.90
2019-04-25T06:43:44.231Z,99.90
2019-04-25T06:45:30.966Z,99.90
2019-04-25T06:47:13.051Z,99.90
2019-04-25T06:52:51.080Z,99.90
2019-04-25T06:54:16.589Z,99.90
2019-04-25T06:55:43.406Z,99.90
2019-04-25T06:57:09.375Z,99.90
2019-04-25T06:58:35.468Z,99.90
2019-04-25T07:00:01.330Z,99.90
2019-04-25T07:01:28.006Z,99.90
2019-04-25T07:02:53.986Z,99.90
2019-04-25T07:04:19.611Z,99.90
2019-04-25T07:05:45.311Z,99.90
2019-04-25T07:07:13.092Z,99.90
2019-04-25T07:08:38.156Z,99.90
2019-04-25T07:10:03.730Z,99.90
2019-04-25T07:11:30.230Z,99.90
2019-04-25T07:12:56.051Z,99.90
2019-04-25T07:14:21.771Z,99.90
2019-04-25T07:15:47.298Z,99.90
2019-04-25T07:17:14.339Z,99.90
2019-04-25T07:18:40.090Z,99.90
2019-04-25T07:20:06.150Z,99.90
2019-04-25T07:21:32.348Z,99.90
2019-04-25T07:22:58.000Z,99.90
2019-04-25T07:24:24.802Z,99.90
2019-04-25T07:26:03.750Z,99.90
2019-04-25T07:28:04.787Z,99.90
2019-04-25T07:29:50.588Z,99.90
2019-04-25T07:31:34.779Z,99.90
2019-04-25T07:33:19.600Z,99.90
2019-04-25T07:34:45.720Z,99.90
2019-04-25T07:36:11.285Z,99.90
2019-04-25T07:37:39.064Z,99.90
2019-04-25T07:39:10.411Z,99.90
2019-04-25T07:40:34.052Z,99.90
2019-04-25T07:42:00.067Z,99.90
2019-04-25T07:43:25.892Z,99.90
2019-04-25T07:44:53.435Z,99.90
2019-04-25T07:46:18.735Z,99.90
2019-04-25T07:47:44.342Z,99.90
2019-04-25T07:49:10.266Z,99.90
2019-04-25T07:50:36.633Z,99.90
2019-04-25T07:52:03.575Z,99.90
2019-04-25T07:53:31.561Z,99.90
2019-04-25T07:54:57.178Z,99.90
2019-04-25T07:56:24.122Z,99.90
2019-04-25T07:57:49.829Z,99.90
2019-04-25T07:59:15.560Z,99.90
2019-04-25T08:00:41.538Z,99.90
2019-04-25T08:02:07.303Z,99.90
2019-04-25T08:03:34.117Z,99.90
2019-04-25T08:05:04.247Z,99.90
2019-04-25T08:06:33.413Z,99.90
2019-04-25T08:07:59.319Z,99.90
2019-04-25T08:09:24.842Z,99.90
2019-04-25T08:11:00.184Z,99.90
2019-04-25T08:12:25.798Z,99.90
2019-04-25T08:14:01.155Z,99.90
2019-04-25T08:15:48.608Z,99.90
2019-04-25T08:17:15.179Z,99.90
2019-04-25T08:18:43.373Z,99.90
2019-04-25T08:20:10.369Z,99.90
2019-04-25T08:21:36.652Z,99.90
2019-04-25T08:23:04.290Z,99.90
2019-04-25T08:24:30.764Z,99.90
2019-04-25T08:25:56.452Z,99.90
2019-04-25T08:27:23.155Z,99.90
2019-04-25T08:28:54.997Z,99.90
2019-04-25T08:30:16.660Z,99.90
2019-04-25T08:31:43.883Z,99.90
2019-04-25T08:33:09.196Z,99.90
2019-04-25T08:34:36.091Z,99.90
2019-04-25T08:36:08.194Z,99.90
2019-04-25T08:37:30.307Z,99.90
2019-04-25T08:38:57.500Z,99.90
2019-04-25T08:40:24.721Z,99.90
2019-04-25T08:41:50.155Z,99.90
2019-04-25T08:43:15.618Z,99.90
2019-04-25T08:44:41.358Z,99.90
2019-04-25T08:46:07.028Z,99.90
2019-04-25T08:47:33.198Z,99.90
2019-04-25T08:49:08.255Z,99.90
2019-04-25T08:50:49.808Z,99.90
2019-04-25T08:52:15.378Z,99.90
2019-04-25T08:53:58.877Z,99.90
2019-04-25T08:55:50.705Z,99.90
2019-04-25T08:57:25.592Z,99.90
2019-04-25T08:59:32.739Z,99.90
2019-04-25T09:01:05.286Z,99.90
2019-04-25T09:02:40.603Z,99.90
2019-04-25T09:04:27.845Z,99.90
2019-04-25T09:05:53.457Z,99.90
2019-04-25T09:07:19.090Z,99.90
2019-04-25T09:08:46.525Z,99.90
2019-04-25T09:10:13.457Z,99.90
2019-04-25T09:11:40.056Z,99.90
2019-04-25T09:13:05.932Z,99.90
2019-04-25T09:14:32.393Z,99.90
2019-04-25T09:15:58.748Z,99.90
2019-04-25T09:17:24.411Z,99.90
2019-04-25T09:18:50.003Z,99.90
2019-04-25T09:20:15.873Z,99.90
2019-04-25T09:21:45.398Z,99.90
2019-04-25T09:23:08.481Z,99.90
2019-04-25T09:24:36.704Z,99.90
2019-04-25T09:26:01.205Z,99.90
2019-04-25T09:27:26.781Z,99.90
2019-04-25T09:28:53.639Z,99.90
2019-04-25T09:30:19.663Z,99.90
2019-04-25T09:31:46.050Z,99.90
2019-04-25T09:33:13.168Z,99.90
2019-04-25T09:34:38.703Z,99.90
2019-04-25T09:36:04.897Z,99.90
2019-04-25T09:37:33.472Z,99.90
2019-04-25T09:39:03.750Z,99.90
2019-04-25T09:40:29.339Z,99.90
2019-04-25T09:41:54.834Z,99.90
2019-04-25T09:43:20.463Z,99.90
2019-04-25T09:45:10.819Z,99.90
2019-04-25T09:46:37.323Z,99.90
2019-04-25T09:48:20.992Z,99.90
2019-04-25T09:49:47.167Z,99.90
2019-04-25T09:51:20.477Z,99.90
2019-04-25T09:52:47.092Z,99.90
2019-04-25T09:54:30.940Z,99.90
2019-04-25T09:56:20.724Z,99.90
2019-04-25T09:58:04.089Z,99.90
2019-04-25T09:59:30.183Z,99.90
2019-04-25T10:00:59.708Z,99.90
2019-04-25T10:02:25.793Z,99.80
2019-04-25T10:03:51.474Z,99.70
2019-04-25T10:05:17.073Z,99.80
2019-04-25T10:06:44.361Z,99.80
2019-04-25T10:08:10.009Z,99.10
2019-04-25T10:09:35.638Z,99.20
2019-04-25T10:11:01.176Z,98.90
2019-04-25T10:12:26.709Z,98.70
2019-04-25T10:14:05.247Z,98.50
2019-04-25T10:16:05.991Z,98.40
2019-04-25T10:17:31.517Z,98.70
2019-04-25T10:18:56.959Z,98.80
2019-04-25T10:20:23.167Z,98.90
2019-04-25T10:21:49.668Z,99.00
2019-04-25T10:23:15.673Z,98.90
2019-04-25T10:24:41.315Z,99.10
2019-04-25T10:26:08.709Z,99.20
2019-04-25T10:27:34.561Z,99.50
2019-04-25T10:29:00.265Z,99.90
2019-04-25T10:30:26.093Z,99.90
2019-04-25T10:31:51.790Z,99.90
2019-04-25T10:33:17.723Z,99.90
2019-04-25T10:34:44.655Z,99.90
2019-04-25T10:36:14.499Z,99.90
2019-04-25T10:37:41.033Z,99.90
2019-04-25T10:39:11.016Z,99.90
2019-04-25T10:40:36.106Z,99.90
2019-04-25T10:42:03.488Z,99.90
2019-04-25T10:43:28.984Z,99.90
2019-04-25T10:44:56.563Z,99.90
2019-04-25T10:46:22.096Z,99.90
2019-04-25T10:47:47.825Z,99.90
2019-04-25T10:49:14.498Z,99.90
2019-04-25T10:50:41.669Z,99.90
2019-04-25T10:52:08.782Z,99.70
2019-04-25T10:53:34.532Z,99.60
2019-04-25T10:55:00.188Z,99.70
2019-04-25T10:56:25.769Z,99.70
2019-04-25T10:57:51.405Z,99.90
2019-04-25T10:59:16.867Z,99.80
2019-04-25T11:00:46.100Z,99.60
2019-04-25T11:02:11.385Z,99.40
2019-04-25T11:03:49.927Z,99.50
2019-04-25T11:05:16.231Z,99.60
2019-04-25T11:06:41.973Z,99.70
2019-04-25T11:08:07.515Z,99.90
2019-04-25T11:09:34.311Z,99.90
2019-04-25T11:11:00.160Z,99.80
2019-04-25T11:12:25.773Z,99.80
2019-04-25T11:13:52.275Z,99.60
2019-04-25T11:15:18.764Z,99.70
2019-04-25T11:16:45.572Z,99.80
2019-04-25T11:18:13.116Z,99.80
2019-04-25T11:19:39.024Z,99.90
2019-04-25T11:21:06.062Z,99.90
2019-04-25T11:22:31.598Z,99.90
2019-04-25T11:23:57.199Z,99.90
2019-04-25T11:25:24.055Z,99.90
2019-04-25T11:26:51.414Z,99.90
2019-04-25T11:28:17.261Z,99.90
2019-04-25T11:29:44.726Z,99.90
2019-04-25T11:31:14.256Z,99.90
2019-04-25T11:32:39.828Z,99.90
2019-04-25T11:34:05.620Z,99.90
2019-04-25T11:35:31.277Z,99.90
2019-04-25T11:36:57.666Z,99.90
2019-04-25T11:38:30.911Z,99.90
2019-04-25T11:40:23.259Z,99.90
2019-04-25T11:41:49.532Z,99.90
2019-04-25T11:43:15.420Z,99.90
2019-04-25T11:44:40.915Z,99.90
2019-04-25T11:46:06.672Z,99.90
2019-04-25T11:47:33.455Z,99.90
2019-04-25T11:48:59.188Z,99.90
2019-04-25T11:50:25.207Z,99.90
2019-04-25T11:51:50.907Z,99.90
2019-04-25T11:53:16.576Z,99.90
2019-04-25T11:54:44.632Z,99.90
2019-04-25T11:56:09.366Z,99.90
2019-04-25T11:57:35.105Z,99.90
2019-04-25T11:59:00.688Z,99.90
2019-04-25T12:00:28.933Z,99.90
2019-04-25T12:01:57.151Z,99.90
2019-04-25T12:03:23.208Z,99.90
2019-04-25T12:04:49.247Z,99.90
2019-04-25T12:06:14.957Z,99.90
2019-04-25T12:07:40.640Z,99.90
2019-04-25T12:09:06.777Z,99.90
2019-04-25T12:10:34.558Z,99.90
2019-04-25T12:12:00.311Z,99.90
2019-04-25T12:13:25.775Z,99.90
2019-04-25T12:14:51.685Z,99.90
2019-04-25T12:16:17.600Z,99.90
2019-04-25T12:17:43.853Z,99.90
2019-04-25T12:19:10.543Z,99.90
2019-04-25T12:20:36.255Z,99.90
2019-04-25T12:22:01.721Z,99.90
2019-04-25T12:23:27.356Z,99.90
2019-04-25T12:24:54.711Z,99.90
2019-04-25T12:26:20.136Z,99.90
2019-04-25T12:27:48.595Z,99.90
2019-04-25T12:29:14.392Z,99.90
2019-04-25T12:30:40.614Z,99.90
2019-04-25T12:32:06.916Z,99.90
2019-04-25T12:33:32.441Z,99.90
2019-04-25T12:34:58.038Z,99.90
2019-04-25T12:36:24.024Z,99.90
2019-04-25T12:37:49.871Z,99.90
2019-04-25T12:39:15.931Z,99.90
2019-04-25T12:40:43.274Z,99.90
2019-04-25T12:42:08.945Z,99.90
2019-04-25T12:43:36.097Z,99.90
2019-04-25T12:45:26.635Z,99.90
2019-04-25T12:46:54.581Z,99.90
2019-04-25T12:48:20.579Z,99.90
2019-04-25T12:49:46.748Z,99.90
2019-04-25T12:51:13.500Z,99.80
2019-04-25T12:52:39.396Z,99.80
2019-04-25T12:54:04.942Z,99.70
2019-04-25T12:55:30.745Z,99.40
2019-04-25T12:56:57.230Z,99.10
2019-04-25T12:58:23.489Z,99.00
2019-04-25T12:59:49.257Z,99.50
2019-04-25T13:01:15.329Z,99.90
2019-04-25T13:02:44.736Z,99.90
2019-04-25T13:04:10.753Z,99.90
2019-04-25T13:05:36.501Z,99.90
2019-04-25T13:07:03.762Z,99.90
2019-04-25T13:08:29.392Z,99.90
2019-04-25T13:09:59.475Z,99.90
2019-04-25T13:11:23.982Z,99.90
2019-04-25T13:12:50.061Z,99.90
2019-04-25T13:14:15.803Z,99.90
2019-04-25T13:15:45.839Z,99.90
2019-04-25T13:17:10.363Z,99.90
2019-04-25T13:18:36.002Z,99.90
2019-04-25T13:20:03.896Z,99.90
2019-04-25T13:21:29.594Z,99.90
2019-04-25T13:22:56.486Z,99.90
2019-04-25T13:24:22.155Z,99.90
2019-04-25T13:32:56.522Z,99.90
2019-04-25T13:34:36.046Z,99.90
2019-04-25T13:40:54.495Z,99.90
2019-04-25T13:42:20.292Z,99.90
2019-04-25T13:43:45.982Z,99.90
2019-04-25T13:45:11.891Z,99.90
2019-04-25T13:46:37.919Z,99.90
2019-04-25T13:48:04.897Z,99.90
2019-04-25T13:49:31.567Z,99.90
2019-04-25T13:50:57.371Z,99.90
2019-04-25T13:52:23.822Z,99.90
2019-04-25T13:53:49.700Z,99.90
2019-04-25T13:55:21.222Z,99.90
2019-04-25T13:56:49.385Z,99.90
2019-04-25T13:58:15.813Z,99.90
2019-04-25T13:59:44.351Z,99.90
2019-04-25T14:01:17.031Z,99.90
2019-04-25T14:02:50.210Z,99.90
2019-04-25T14:04:47.396Z,99.90
2019-04-25T14:06:20.065Z,99.90
2019-04-25T14:10:34.229Z,99.90
2019-04-25T14:12:04.041Z,99.90
2019-04-25T14:13:30.280Z,99.70
2019-04-25T14:14:56.385Z,99.40
2019-04-25T14:16:41.178Z,99.00
2019-04-25T14:18:17.788Z,99.30
2019-04-25T14:24:01.310Z,97.80
2019-04-25T14:25:27.636Z,96.80
2019-04-25T14:26:54.471Z,96.00
2019-04-25T14:30:18.609Z,95.50
2019-04-25T14:31:48.416Z,95.50
2019-04-25T14:33:13.558Z,95.30
2019-04-25T14:34:39.637Z,95.40
2019-04-25T14:36:05.286Z,95.20
2019-04-25T14:37:39.403Z,95.10
2019-04-25T14:39:00.781Z,95.20
2019-04-25T14:40:26.992Z,95.30
2019-04-25T14:41:52.916Z,95.20
2019-04-25T14:43:18.354Z,95.20
2019-04-25T14:44:43.998Z,95.20
2019-04-25T14:46:09.738Z,95.20
2019-04-25T14:47:35.166Z,95.20
2019-04-25T14:49:21.627Z,95.10
2019-04-25T14:50:47.944Z,94.50
2019-04-25T14:52:13.500Z,94.20
2019-04-25T14:53:39.156Z,94.30
2019-04-25T14:55:29.680Z,94.30
2019-04-25T14:57:04.940Z,94.10
2019-04-25T14:58:31.683Z,94.20
2019-04-25T14:59:57.528Z,94.30
2019-04-25T15:01:24.094Z,94.00
2019-04-25T15:02:49.915Z,93.70
2019-04-25T15:04:15.371Z,93.70
2019-04-25T15:05:43.154Z,93.50
2019-04-25T15:07:08.227Z,93.80
2019-04-25T15:08:33.724Z,93.80
2019-04-25T15:09:59.322Z,93.90
2019-04-25T15:11:24.861Z,93.80
2019-04-25T15:12:50.332Z,93.60
2019-04-25T15:14:16.005Z,93.50
2019-04-25T15:15:41.818Z,93.60
2019-04-25T15:17:09.277Z,93.50
2019-04-25T15:18:46.040Z,93.50
2019-04-25T15:20:01.887Z,93.40
2019-04-25T15:21:27.613Z,93.10
2019-04-25T15:22:53.124Z,92.80
2019-04-25T15:24:18.637Z,92.70
2019-04-25T15:25:44.302Z,92.30
2019-04-25T15:27:09.808Z,92.20
2019-04-25T15:28:36.296Z,92.30
2019-04-25T15:30:02.183Z,92.10
2019-04-25T15:31:28.299Z,92.00
2019-04-25T15:32:53.917Z,91.80
2019-04-25T15:34:19.388Z,91.60
2019-04-25T15:35:59.311Z,91.40
2019-04-25T15:37:49.909Z,91.20
2019-04-25T15:39:40.762Z,90.90
2019-04-25T15:41:16.017Z,90.70
2019-04-25T15:42:48.500Z,90.50
2019-04-25T15:44:35.696Z,90.40
2019-04-25T15:46:27.293Z,90.10
2019-04-25T15:47:53.657Z,89.30
2019-04-25T15:49:19.536Z,89.70
2019-04-25T15:50:49.418Z,89.70
2019-04-25T15:52:15.038Z,89.10
2019-04-25T15:53:40.685Z,88.50
2019-04-25T15:55:07.888Z,88.10
2019-04-25T15:56:34.618Z,88.20
2019-04-25T15:58:00.195Z,87.90
2019-04-25T15:59:26.366Z,87.20
2019-04-25T16:00:52.136Z,86.40
2019-04-25T16:02:17.968Z,85.60
2019-04-25T16:03:43.565Z,85.80
2019-04-25T16:05:09.172Z,86.20
2019-04-25T16:06:34.832Z,85.60
2019-04-25T16:08:00.475Z,85.90
2019-04-25T16:09:26.780Z,86.00
2019-04-25T16:10:52.527Z,85.60
2019-04-25T16:12:18.183Z,86.30
2019-04-25T16:13:43.657Z,86.40
2019-04-25T16:15:10.341Z,86.60
2019-04-25T16:16:35.959Z,87.00
2019-04-25T16:18:01.661Z,87.30
2019-04-25T16:19:28.177Z,87.80
2019-04-25T16:20:53.764Z,88.10
2019-04-25T16:22:19.305Z,88.40
2019-04-25T16:23:44.900Z,88.80
2019-04-25T16:25:10.679Z,89.00
2019-04-25T16:26:36.131Z,89.40
2019-04-25T16:28:01.833Z,89.30
2019-04-25T16:29:27.790Z,88.60
2019-04-25T16:30:53.588Z,88.90
2019-04-25T16:32:21.355Z,89.10
2019-04-25T16:33:46.924Z,89.10
2019-04-25T16:35:12.524Z,89.30
2019-04-25T16:36:38.073Z,89.00
2019-04-25T16:38:04.795Z,89.30
2019-04-25T16:39:33.023Z,89.40
2019-04-25T16:40:58.821Z,89.70
2019-04-25T16:42:24.254Z,90.00
2019-04-25T16:43:53.348Z,90.20
2019-04-25T16:45:19.096Z,90.30
2019-04-25T16:46:45.140Z,90.40
2019-04-25T16:48:10.923Z,90.50
2019-04-25T16:49:36.953Z,90.70
2019-04-25T16:51:02.724Z,90.70
2019-04-25T16:52:30.279Z,90.80
2019-04-25T16:53:56.059Z,90.90
2019-04-25T16:55:22.011Z,90.90
2019-04-25T16:56:47.560Z,91.00
2019-04-25T16:58:13.328Z,90.80
2019-04-25T16:59:39.052Z,91.00
2019-04-25T17:01:10.932Z,91.10
2019-04-25T17:02:39.642Z,91.00
2019-04-25T17:04:03.674Z,91.20
2019-04-25T17:05:30.829Z,91.10
2019-04-25T17:06:56.411Z,91.20
2019-04-25T17:08:21.853Z,91.20
2019-04-25T17:09:47.443Z,91.30
2019-04-25T17:11:13.311Z,91.50
2019-04-25T17:12:38.891Z,91.60
2019-04-25T17:14:15.687Z,91.60
2019-04-25T17:16:01.207Z,91.50
2019-04-25T17:17:31.996Z,91.50
2019-04-25T17:19:01.071Z,91.60
2019-04-25T17:20:33.043Z,91.70
2019-04-25T17:21:58.619Z,91.80
2019-04-25T17:23:24.195Z,91.90
2019-04-25T17:24:49.685Z,92.10
2019-04-25T17:26:16.695Z,92.10
2019-04-25T17:27:42.287Z,92.20
2019-04-25T17:29:11.409Z,92.30
2019-04-25T17:30:38.747Z,92.40
2019-04-25T17:32:25.883Z,92.50
2019-04-25T17:34:00.956Z,92.60
2019-04-25T17:35:45.341Z,92.80
2019-04-25T17:37:29.451Z,93.00
2019-04-25T17:39:01.207Z,93.00
2019-04-25T17:40:29.961Z,93.20
2019-04-25T17:41:55.448Z,93.50
2019-04-25T17:43:21.017Z,93.20
2019-04-25T17:44:46.543Z,93.30
2019-04-25T17:46:13.598Z,93.40
2019-04-25T17:47:39.144Z,93.40
2019-04-25T17:49:04.747Z,93.50
2019-04-25T17:50:30.282Z,93.50
2019-04-25T17:51:55.776Z,93.60
2019-04-25T17:53:21.223Z,93.50
2019-04-25T17:54:47.365Z,93.40
2019-04-25T17:56:13.172Z,93.40
2019-04-25T17:57:38.813Z,93.40
2019-04-25T17:59:04.391Z,93.40
2019-04-25T18:00:38.519Z,93.40
2019-04-25T18:02:04.210Z,93.30
2019-04-25T18:03:29.763Z,93.40
2019-04-25T18:04:55.339Z,93.40
2019-04-25T18:06:20.865Z,93.50
2019-04-25T18:07:47.020Z,93.50
2019-04-25T18:09:12.580Z,93.60
2019-04-25T18:10:38.390Z,94.00
2019-04-25T18:12:04.458Z,93.90
2019-04-25T18:13:29.894Z,93.90
2019-04-25T18:14:58.023Z,93.80
2019-04-25T18:16:34.663Z,93.90
2019-04-25T18:18:02.056Z,93.90
2019-04-25T18:19:38.560Z,93.80
2019-04-25T18:21:04.179Z,93.80
2019-04-25T18:22:57.845Z,93.70
2019-04-25T18:24:41.192Z,93.60
2019-04-25T18:26:21.145Z,93.50
2019-04-25T18:28:04.346Z,93.40
2019-04-25T18:29:30.147Z,93.40
2019-04-25T18:30:55.725Z,93.40
2019-04-25T18:32:21.634Z,93.40
2019-04-25T18:33:48.494Z,93.40
2019-04-25T18:35:28.035Z,93.30
2019-04-25T18:37:07.037Z,93.40
2019-04-25T18:38:58.883Z,93.20
2019-04-25T18:40:44.080Z,93.30
2019-04-25T18:42:31.726Z,93.30
2019-04-25T18:43:59.427Z,93.50
2019-04-25T18:45:28.281Z,93.60
2019-04-25T18:46:53.952Z,93.70
2019-04-25T18:48:19.552Z,93.80
2019-04-25T18:49:46.734Z,93.90
2019-04-25T18:51:13.005Z,94.10
2019-04-25T18:52:54.826Z,94.30
2019-04-25T18:54:57.204Z,94.50
2019-04-25T18:56:47.766Z,94.70
2019-04-25T18:58:23.633Z,94.80
2019-04-25T19:00:04.042Z,94.90
2019-04-25T19:01:46.911Z,95.00
2019-04-25T19:03:31.382Z,95.20
2019-04-25T19:05:15.851Z,95.40
2019-04-25T19:06:52.786Z,95.50
2019-04-25T19:08:08.707Z,95.80
2019-04-25T19:09:34.222Z,95.90
2019-04-25T19:10:59.795Z,96.00
2019-04-25T19:12:25.322Z,96.00
2019-04-25T19:13:51.671Z,96.00
2019-04-25T19:15:17.631Z,95.90
2019-04-25T19:16:43.069Z,96.00
2019-04-25T19:18:08.624Z,96.00
2019-04-25T19:19:34.328Z,96.00
2019-04-25T19:20:59.848Z,96.10
2019-04-25T19:22:25.387Z,96.00
2019-04-25T19:23:50.880Z,96.10
2019-04-25T19:25:16.594Z,96.20
2019-04-25T19:26:43.240Z,96.20
2019-04-25T19:28:09.199Z,96.20
2019-04-25T19:29:34.694Z,96.20